Whittlesey, United Kingdom
Current Conditions -  °F | °C
As of 7:50 AM on Monday 22 Dec 2014 (Local Time) from EGXT Reporting Station
Few Clouds Few Clouds  
Wind Chill: 54°   Ceiling: Unl
Heat Index: 54°   Visibility: 6mi
Dew Point: 46°   Wind: 25mph
Humidity: 77%   Direction: 240°WSW
Pressure: 29.88"   Gusts: NA
Location:  52.56°N, 0.13°W
Report Text: EGXT 220750Z AUTO 24022KT 9999 FEW170/// 12/08 Q1012
Loading
Personal Weather Stations






























Interactive Weather Map New forecast layout! Learn more

10-Day Weather Forecast

Advertisements
Track Severe Weather on mobile